Time,TemperatureF,DewpointF,PressureIn,WindDirection,WindDirectionDegrees,WindSpeedMPH,WindSpeedGustMPH,Humidity,HourlyPrecipIn,Conditions,Clouds,dailyrainin,SoftwareType,DateUTC
2013-01-16 00:05:00,30.7,21.0,30.24,NW,305,2.0,3.0,68,0.00,,,0.00,weatherlink.com 1.10,2013-01-16 05:05:00,
2013-01-16 00:20:00,30.7,22.0,30.26,WNW,290,2.0,3.0,69,0.00,,,0.00,weatherlink.com 1.10,2013-01-16 05:20:00,
2013-01-16 00:35:00,30.7,22.0,30.26,West,259,2.0,3.0,69,0.00,,,0.00,weatherlink.com 1.10,2013-01-16 05:35:00,
2013-01-16 00:50:00,30.7,22.0,30.25,NW,304,1.0,3.0,70,0.00,,,0.00,weatherlink.com 1.10,2013-01-16 05:50:00,
2013-01-16 01:05:00,30.5,22.0,30.26,WSW,242,1.0,3.0,70,0.00,,,0.00,weatherlink.com 1.10,2013-01-16 06:05:00,
2013-01-16 01:20:00,30.5,22.0,30.27,SW,228,0.0,1.0,70,0.00,,,0.00,weatherlink.com 1.10,2013-01-16 06:20:00,
2013-01-16 01:35:00,30.5,22.0,30.27,WSW,239,1.0,2.0,70,0.00,,,0.00,weatherlink.com 1.10,2013-01-16 06:35:00,
2013-01-16 01:50:00,30.4,22.0,30.26,SW,235,1.0,2.0,71,0.00,,,0.00,weatherlink.com 1.10,2013-01-16 06:50:00,
2013-01-16 02:05:00,30.3,22.0,30.25,WSW,238,1.0,3.0,72,0.00,,,0.00,weatherlink.com 1.10,2013-01-16 07:05:00,
2013-01-16 02:20:00,30.3,23.0,30.25,SW,231,1.0,2.0,73,0.00,,,0.00,weatherlink.com 1.10,2013-01-16 07:20:00,
2013-01-16 02:35:00,30.2,23.0,30.24,WSW,240,0.0,2.0,73,0.00,,,0.00,weatherlink.com 1.10,2013-01-16 07:35:00,
2013-01-16 02:50:00,30.2,23.0,30.24,SW,224,1.0,1.0,74,0.00,,,0.00,weatherlink.com 1.10,2013-01-16 07:50:00,
2013-01-16 03:05:00,30.3,23.0,30.24,NE,44,1.0,1.0,74,0.00,,,0.00,weatherlink.com 1.10,2013-01-16 08:05:00,
2013-01-16 03:20:00,30.4,23.0,30.23,SSW,205,0.0,2.0,75,0.00,,,0.00,weatherlink.com 1.10,2013-01-16 08:20:00,
2013-01-16 03:35:00,30.6,23.0,30.22,NE,51,1.0,3.0,74,0.00,,,0.00,weatherlink.com 1.10,2013-01-16 08:35:00,
2013-01-16 03:50:00,31.0,23.0,30.21,NNE,25,3.0,4.0,72,0.00,,,0.00,weatherlink.com 1.10,2013-01-16 08:50:00,
2013-01-16 04:05:00,31.2,23.0,30.22,East,81,2.0,3.0,71,0.00,,,0.00,weatherlink.com 1.10,2013-01-16 09:05:00,
2013-01-16 04:20:00,31.4,23.0,30.20,ENE,75,2.0,4.0,70,0.00,,,0.00,weatherlink.com 1.10,2013-01-16 09:20:00,
2013-01-16 04:35:00,31.4,22.0,30.20,SW,232,1.0,3.0,69,0.00,,,0.00,weatherlink.com 1.10,2013-01-16 09:35:00,
2013-01-16 04:50:00,31.6,22.0,30.19,NE,49,2.0,4.0,67,0.00,,,0.00,weatherlink.com 1.10,2013-01-16 09:50:00,
2013-01-16 05:05:00,31.7,22.0,30.18,East,84,1.0,3.0,67,0.00,,,0.00,weatherlink.com 1.10,2013-01-16 10:05:00,
2013-01-16 05:20:00,31.8,22.0,30.17,NNW,329,2.0,2.0,67,0.00,,,0.00,weatherlink.com 1.10,2013-01-16 10:20:00,
2013-01-16 05:35:00,32.0,22.0,30.17,West,266,1.0,3.0,66,0.00,,,0.00,weatherlink.com 1.10,2013-01-16 10:35:00,
2013-01-16 05:50:00,31.8,22.0,30.17,West,274,2.0,3.0,67,0.00,,,0.00,weatherlink.com 1.10,2013-01-16 10:50:00,
2013-01-16 06:06:00,31.8,21.0,30.17,WSW,255,2.0,4.0,65,0.00,,,0.00,weatherlink.com 1.10,2013-01-16 11:06:00,
2013-01-16 06:21:00,31.8,22.0,30.16,WNW,300,2.0,3.0,67,0.00,,,0.00,weatherlink.com 1.10,2013-01-16 11:21:00,
2013-01-16 06:36:00,31.8,22.0,30.15,WSW,248,1.0,3.0,67,0.00,,,0.00,weatherlink.com 1.10,2013-01-16 11:36:00,
2013-01-16 06:51:00,31.8,22.0,30.16,SW,226,0.0,2.0,66,0.00,,,0.00,weatherlink.com 1.10,2013-01-16 11:51:00,
2013-01-16 07:06:00,32.5,23.0,30.15,SE,143,1.0,6.0,68,0.00,,,0.00,weatherlink.com 1.10,2013-01-16 12:06:00,
2013-01-16 07:21:00,31.7,25.0,30.16,NNE,13,1.0,5.0,76,0.00,,,0.00,weatherlink.com 1.10,2013-01-16 12:21:00,
2013-01-16 07:36:00,30.7,27.0,30.15,North,349,1.0,5.0,86,0.00,,,0.00,weatherlink.com 1.10,2013-01-16 12:36:00,
2013-01-16 07:51:00,30.3,28.0,30.15,NW,312,3.0,6.0,91,0.00,,,0.00,weatherlink.com 1.10,2013-01-16 12:51:00,
2013-01-16 08:06:00,30.2,29.0,30.14,NNW,338,3.0,6.0,93,0.00,,,0.00,weatherlink.com 1.10,2013-01-16 13:06:00,
2013-01-16 08:21:00,30.2,29.0,30.14,NW,309,3.0,6.0,94,0.00,,,0.00,weatherlink.com 1.10,2013-01-16 13:21:00,
2013-01-16 08:36:00,30.1,29.0,30.14,NNW,330,5.0,7.0,94,0.00,,,0.00,weatherlink.com 1.10,2013-01-16 13:36:00,
2013-01-16 08:51:00,30.2,29.0,30.14,NW,311,2.0,6.0,95,0.00,,,0.00,weatherlink.com 1.10,2013-01-16 13:51:00,
2013-01-16 09:06:00,30.3,29.0,30.12,NW,323,4.0,6.0,95,0.00,,,0.00,weatherlink.com 1.10,2013-01-16 14:06:00,
2013-01-16 09:21:00,30.3,29.0,30.11,NNW,336,4.0,8.0,95,0.00,,,0.00,weatherlink.com 1.10,2013-01-16 14:21:00,
2013-01-16 09:36:00,30.4,29.0,30.10,NNW,333,3.0,8.0,95,0.00,,,0.00,weatherlink.com 1.10,2013-01-16 14:36:00,
2013-01-16 09:51:00,30.6,29.0,30.08,NW,326,5.0,8.0,95,0.00,,,0.00,weatherlink.com 1.10,2013-01-16 14:51:00,
2013-01-16 10:06:00,30.9,30.0,30.08,NW,324,3.0,9.0,95,0.00,,,0.00,weatherlink.com 1.10,2013-01-16 15:06:00,
2013-01-16 10:21:00,31.2,30.0,30.07,NNW,328,4.0,9.0,96,0.00,,,0.00,weatherlink.com 1.10,2013-01-16 15:21:00,
2013-01-16 10:36:00,31.4,30.0,30.05,NNW,330,4.0,7.0,96,0.00,,,0.00,weatherlink.com 1.10,2013-01-16 15:36:00,
2013-01-16 10:51:00,31.6,31.0,30.03,NNW,332,4.0,6.0,96,0.00,,,0.00,weatherlink.com 1.10,2013-01-16 15:51:00,
2013-01-16 11:06:00,31.7,31.0,30.02,North,11,3.0,7.0,96,0.00,,,0.00,weatherlink.com 1.10,2013-01-16 16:06:00,
2013-01-16 11:21:00,31.8,31.0,30.02,NNW,348,3.0,6.0,96,0.00,,,0.00,weatherlink.com 1.10,2013-01-16 16:21:00,
2013-01-16 11:36:00,32.0,31.0,30.00,NW,319,1.0,3.0,96,0.00,,,0.00,weatherlink.com 1.10,2013-01-16 16:36:00,
2013-01-16 11:51:00,32.1,31.0,29.98,NNW,340,3.0,4.0,96,0.00,,,0.00,weatherlink.com 1.10,2013-01-16 16:51:00,
2013-01-16 12:06:00,32.2,31.0,29.96,NNE,20,2.0,5.0,96,0.00,,,0.00,weatherlink.com 1.10,2013-01-16 17:06:00,
2013-01-16 12:21:00,32.2,31.0,29.96,NW,323,1.0,5.0,96,0.00,,,0.00,weatherlink.com 1.10,2013-01-16 17:21:00,
2013-01-16 12:36:00,32.3,32.0,29.96,West,267,1.0,4.0,97,0.00,,,0.00,weatherlink.com 1.10,2013-01-16 17:36:00,
2013-01-16 12:52:00,32.3,32.0,29.94,NW,322,2.0,4.0,97,0.00,,,0.00,weatherlink.com 1.10,2013-01-16 17:52:00,
2013-01-16 13:07:00,32.3,32.0,29.94,WNW,303,2.0,5.0,97,0.00,,,0.00,weatherlink.com 1.10,2013-01-16 18:07:00,
2013-01-16 13:22:00,32.3,32.0,29.93,NNW,333,3.0,3.0,97,0.00,,,0.00,weatherlink.com 1.10,2013-01-16 18:22:00,
2013-01-16 13:37:00,32.4,32.0,29.92,SSW,195,0.0,2.0,97,0.00,,,0.00,weatherlink.com 1.10,2013-01-16 18:37:00,
2013-01-16 13:52:00,32.4,32.0,29.92,West,278,1.0,2.0,97,0.00,,,0.00,weatherlink.com 1.10,2013-01-16 18:52:00,
2013-01-16 14:07:00,32.5,32.0,29.91,WSW,239,1.0,3.0,97,0.00,,,0.00,weatherlink.com 1.10,2013-01-16 19:07:00,
2013-01-16 14:22:00,32.5,32.0,29.89,NNE,15,1.0,2.0,97,0.00,,,0.00,weatherlink.com 1.10,2013-01-16 19:22:00,
2013-01-16 14:37:00,32.6,32.0,29.88,NW,310,1.0,2.0,97,0.00,,,0.00,weatherlink.com 1.10,2013-01-16 19:37:00,
2013-01-16 14:52:00,32.6,32.0,29.86,NE,53,1.0,2.0,97,0.00,,,0.00,weatherlink.com 1.10,2013-01-16 19:52:00,
2013-01-16 15:07:00,32.6,32.0,29.87,West,262,1.0,2.0,97,0.00,,,0.00,weatherlink.com 1.10,2013-01-16 20:07:00,
2013-01-16 15:22:00,32.8,32.0,29.85,West,270,1.0,2.0,97,0.00,,,0.00,weatherlink.com 1.10,2013-01-16 20:22:00,
2013-01-16 15:37:00,33.0,32.0,29.86,WSW,246,0.0,1.0,97,0.00,,,0.00,weatherlink.com 1.10,2013-01-16 20:37:00,
2013-01-16 15:52:00,33.0,32.0,29.85,WSW,257,0.0,0.0,97,0.00,,,0.00,weatherlink.com 1.10,2013-01-16 20:52:00,
2013-01-16 16:07:00,32.9,32.0,29.84,SW,233,1.0,1.0,97,0.00,,,0.00,weatherlink.com 1.10,2013-01-16 21:07:00,
2013-01-16 16:22:00,32.8,32.0,29.84,SW,232,1.0,2.0,97,0.00,,,0.00,weatherlink.com 1.10,2013-01-16 21:22:00,
2013-01-16 16:37:00,32.8,32.0,29.84,SW,226,0.0,1.0,97,0.00,,,0.00,weatherlink.com 1.10,2013-01-16 21:37:00,
2013-01-16 16:52:00,32.9,32.0,29.85,SW,233,1.0,2.0,97,0.00,,,0.00,weatherlink.com 1.10,2013-01-16 21:52:00,
2013-01-16 17:07:00,33.0,32.0,29.85,SW,231,0.0,1.0,97,0.00,,,0.00,weatherlink.com 1.10,2013-01-16 22:07:00,
2013-01-16 17:22:00,32.8,32.0,29.84,SW,219,0.0,1.0,97,0.00,,,0.00,weatherlink.com 1.10,2013-01-16 22:22:00,
2013-01-16 17:37:00,32.8,32.0,29.84,SW,221,0.0,1.0,97,0.00,,,0.00,weatherlink.com 1.10,2013-01-16 22:37:00,
2013-01-16 17:52:00,32.8,32.0,29.84,SW,214,0.0,1.0,97,0.01,,,0.01,weatherlink.com 1.10,2013-01-16 22:52:00,
2013-01-16 18:07:00,32.9,32.0,29.83,SW,214,0.0,1.0,97,0.03,,,0.03,weatherlink.com 1.10,2013-01-16 23:07:00,
2013-01-16 18:22:00,32.8,32.0,29.83,SW,221,1.0,1.0,97,0.05,,,0.05,weatherlink.com 1.10,2013-01-16 23:22:00,
2013-01-16 18:37:00,32.9,32.0,29.83,SW,221,0.0,1.0,97,0.06,,,0.06,weatherlink.com 1.10,2013-01-16 23:37:00,
2013-01-16 18:52:00,33.1,33.0,29.82,SW,221,0.0,1.0,98,0.05,,,0.06,weatherlink.com 1.10,2013-01-16 23:52:00,
2013-01-16 19:07:00,33.8,33.0,29.80,SSW,210,0.0,2.0,98,0.04,,,0.07,weatherlink.com 1.10,2013-01-17 00:07:00,
2013-01-16 19:22:00,34.3,34.0,29.80,SSE,158,0.0,2.0,98,0.03,,,0.08,weatherlink.com 1.10,2013-01-17 00:22:00,
2013-01-16 19:37:00,35.1,35.0,29.80,ESE,103,2.0,5.0,98,0.03,,,0.09,weatherlink.com 1.10,2013-01-17 00:37:00,
2013-01-16 19:52:00,35.5,35.0,29.79,ENE,71,3.0,4.0,98,0.04,,,0.10,weatherlink.com 1.10,2013-01-17 00:52:00,
2013-01-16 20:07:00,35.8,35.0,29.79,ENE,76,1.0,4.0,98,0.04,,,0.11,weatherlink.com 1.10,2013-01-17 01:07:00,
2013-01-16 20:23:00,36.1,36.0,29.79,ENE,75,3.0,4.0,98,0.05,,,0.13,weatherlink.com 1.10,2013-01-17 01:23:00,
2013-01-16 20:37:00,36.3,36.0,29.79,SSE,153,1.0,5.0,98,0.06,,,0.15,weatherlink.com 1.10,2013-01-17 01:37:00,
2013-01-16 20:52:00,36.5,36.0,29.78,ENE,76,3.0,4.0,97,0.07,,,0.17,weatherlink.com 1.10,2013-01-17 01:52:00,
2013-01-16 21:07:00,36.8,36.0,29.78,South,180,1.0,7.0,97,0.08,,,0.19,weatherlink.com 1.10,2013-01-17 02:07:00,
2013-01-16 21:22:00,36.6,36.0,29.78,South,190,0.0,2.0,97,0.08,,,0.21,weatherlink.com 1.10,2013-01-17 02:22:00,
2013-01-16 21:37:00,35.7,35.0,29.77,SSW,212,0.0,1.0,97,0.08,,,0.23,weatherlink.com 1.10,2013-01-17 02:37:00,
2013-01-16 21:53:00,35.3,34.0,29.77,SW,215,1.0,1.0,96,0.09,,,0.26,weatherlink.com 1.10,2013-01-17 02:53:00,
2013-01-16 22:07:00,34.7,34.0,29.77,WSW,240,2.0,2.0,96,0.08,,,0.28,weatherlink.com 1.10,2013-01-17 03:07:00,
2013-01-16 22:22:00,34.4,34.0,29.76,West,260,1.0,2.0,97,0.07,,,0.29,weatherlink.com 1.10,2013-01-17 03:22:00,
2013-01-16 22:37:00,34.3,34.0,29.76,SW,222,0.0,2.0,97,0.06,,,0.30,weatherlink.com 1.10,2013-01-17 03:37:00,
2013-01-16 22:52:00,33.6,33.0,29.76,SW,218,1.0,3.0,97,0.06,,,0.32,weatherlink.com 1.10,2013-01-17 03:52:00,
2013-01-16 23:07:00,33.4,33.0,29.76,SW,217,0.0,2.0,97,0.05,,,0.33,weatherlink.com 1.10,2013-01-17 04:07:00,
2013-01-16 23:23:00,33.3,33.0,29.75,SSW,200,0.0,1.0,97,0.04,,,0.33,weatherlink.com 1.10,2013-01-17 04:23:00,
2013-01-16 23:38:00,33.3,33.0,29.76,SSW,201,0.0,1.0,97,0.02,,,0.33,weatherlink.com 1.10,2013-01-17 04:38:00,
2013-01-16 23:53:00,33.1,32.0,29.75,SSW,203,0.0,1.0,97,0.01,,,0.33,weatherlink.com 1.10,2013-01-17 04:53:00,